createdAt,value
2019-01-17T00:00:19.086Z,98311.56
2019-01-17T00:05:42.668Z,98264.59
2019-01-17T00:11:15.522Z,98258.63
2019-01-17T00:16:42.297Z,98280.05
2019-01-17T00:22:23.936Z,98275.02
2019-01-17T00:27:59.339Z,98280.41
2019-01-17T00:33:28.503Z,98306.88
2019-01-17T00:38:50.817Z,98309.56
2019-01-17T00:44:17.110Z,98317.85
2019-01-17T00:49:36.090Z,98338.73
2019-01-17T00:55:08.569Z,98308.14
2019-01-17T01:00:37.162Z,98316.42
2019-01-17T01:06:00.497Z,98284.92
2019-01-17T01:11:22.462Z,98284.36
2019-01-17T01:17:10.949Z,98259.90
2019-01-17T01:22:43.610Z,98292.30
2019-01-17T01:28:07.050Z,98295.17
2019-01-17T01:33:33.139Z,98317.33
2019-01-17T01:38:56.641Z,98334.61
2019-01-17T01:44:32.098Z,98325.05
2019-01-17T01:49:50.671Z,98299.84
2019-01-17T01:54:54.610Z,98326.83
2019-01-17T01:59:58.701Z,98294.28
2019-01-17T02:05:02.831Z,98309.94
2019-01-17T02:10:07.971Z,98294.81
2019-01-17T02:15:12.215Z,98301.27
2019-01-17T02:20:17.025Z,98281.13
2019-01-17T02:25:21.005Z,98291.92
2019-01-17T02:30:24.940Z,98272.30
2019-01-17T02:35:28.966Z,98262.42
2019-01-17T02:40:32.977Z,98285.10
2019-01-17T02:45:37.012Z,98293.57
2019-01-17T02:50:40.936Z,98295.89
2019-01-17T02:55:45.115Z,98286.72
2019-01-17T03:00:49.121Z,98306.33
2019-01-17T03:05:53.100Z,98303.45
2019-01-17T03:10:57.378Z,98322.50
2019-01-17T03:16:01.344Z,98322.13
2019-01-17T03:21:05.915Z,98332.67
2019-01-17T03:26:09.882Z,98328.95
2019-01-17T03:31:13.906Z,98355.45
2019-01-17T03:36:17.953Z,98330.36
2019-01-17T03:41:23.015Z,98330.05
2019-01-17T03:46:27.063Z,98319.65
2019-01-17T03:51:31.095Z,98318.57
2019-01-17T03:56:35.274Z,98330.78
2019-01-17T04:01:39.253Z,98324.39
2019-01-17T04:06:43.379Z,98345.52
2019-01-17T04:11:47.461Z,98353.59
2019-01-17T04:16:51.650Z,98359.66
2019-01-17T04:21:56.630Z,98355.81
2019-01-17T04:27:00.545Z,98359.28
2019-01-17T04:32:04.572Z,98351.28
2019-01-17T04:37:08.511Z,98359.84
2019-01-17T04:42:12.599Z,98352.43
2019-01-17T04:47:16.655Z,98362.94
2019-01-17T04:52:20.648Z,98377.72
2019-01-17T04:57:24.769Z,98395.52
2019-01-17T05:02:28.683Z,98398.98
2019-01-17T05:07:32.851Z,98409.22
2019-01-17T05:12:37.019Z,98407.88
2019-01-17T05:17:41.094Z,98412.12
2019-01-17T05:22:46.147Z,98417.88
2019-01-17T05:27:50.067Z,98419.19
2019-01-17T05:32:54.197Z,98407.18
2019-01-17T05:37:58.238Z,98415.37
2019-01-17T05:43:04.064Z,98422.09
2019-01-17T05:48:07.973Z,98406.36
2019-01-17T05:53:12.012Z,98409.09
2019-01-17T05:58:16.043Z,98411.08
2019-01-17T06:03:20.236Z,98410.69
2019-01-17T06:08:24.177Z,98422.95
2019-01-17T06:13:28.375Z,98425.41
2019-01-17T06:18:32.471Z,98423.84
2019-01-17T06:23:36.739Z,98417.02
2019-01-17T06:28:40.734Z,98418.77
2019-01-17T06:33:44.940Z,98433.39
2019-01-17T06:38:49.061Z,98440.50
2019-01-17T06:43:53.067Z,98449.14
2019-01-17T06:48:57.131Z,98451.83
2019-01-17T06:54:01.148Z,98456.66
2019-01-17T06:59:05.384Z,98452.81
2019-01-17T07:04:09.332Z,98457.42
2019-01-17T07:09:13.678Z,98452.80
2019-01-17T07:14:17.877Z,98466.09
2019-01-17T07:19:22.027Z,98463.98
2019-01-17T07:24:29.226Z,98456.99
2019-01-17T07:29:33.564Z,98462.20
2019-01-17T07:34:37.555Z,98458.75
2019-01-17T07:39:41.641Z,98477.05
2019-01-17T07:44:46.762Z,98474.38
2019-01-17T07:49:50.751Z,98482.52
2019-01-17T07:54:54.714Z,98486.50
2019-01-17T07:59:59.428Z,98484.83
2019-01-17T08:05:04.014Z,98491.59
2019-01-17T08:10:10.704Z,98489.81
2019-01-17T08:15:15.208Z,98495.60
2019-01-17T08:20:21.952Z,98503.38
2019-01-17T08:25:26.490Z,98509.05
2019-01-17T08:30:30.402Z,98507.30
2019-01-17T08:35:34.671Z,98513.88
2019-01-17T08:40:38.898Z,98520.30
2019-01-17T08:45:43.133Z,98517.82
2019-01-17T08:50:47.322Z,98514.93
2019-01-17T08:55:51.779Z,98520.84
2019-01-17T09:00:56.155Z,98527.46
2019-01-17T09:06:00.290Z,98532.77
2019-01-17T09:11:04.674Z,98537.55
2019-01-17T09:16:08.658Z,98540.23
2019-01-17T09:21:12.687Z,98543.36
2019-01-17T09:26:17.174Z,98544.52
2019-01-17T09:31:21.115Z,98541.19
2019-01-17T09:36:25.328Z,98530.36
2019-01-17T09:41:29.300Z,98519.94
2019-01-17T09:46:34.476Z,98514.39
2019-01-17T09:51:38.407Z,98507.89
2019-01-17T09:56:42.629Z,98498.14
2019-01-17T10:01:46.698Z,98491.70
2019-01-17T10:06:50.766Z,98490.83
2019-01-17T10:11:54.833Z,98483.33
2019-01-17T10:17:42.800Z,98480.13
2019-01-17T10:22:56.863Z,98467.32
2019-01-17T10:28:26.312Z,98456.58
2019-01-17T10:33:51.401Z,98447.44
2019-01-17T10:39:36.822Z,98439.72
2019-01-17T10:45:12.145Z,98435.25
2019-01-17T10:50:31.328Z,98426.95
2019-01-17T10:56:04.420Z,98412.55
2019-01-17T11:01:49.677Z,98408.42
2019-01-17T11:07:30.681Z,98396.30
2019-01-17T11:13:24.413Z,98385.98
2019-01-17T11:18:57.325Z,98382.36
2019-01-17T11:24:31.537Z,98377.27
2019-01-17T11:30:20.804Z,98366.38
2019-01-17T11:36:02.250Z,98351.04
2019-01-17T11:41:38.511Z,98344.38
2019-01-17T11:47:41.299Z,98344.86
2019-01-17T11:53:44.799Z,98337.15
2019-01-17T11:59:28.666Z,98334.25
2019-01-17T12:04:32.573Z,98329.20
2019-01-17T12:09:38.230Z,98318.31
2019-01-17T12:14:42.734Z,98315.34
2019-01-17T12:19:46.730Z,98316.39
2019-01-17T12:24:50.813Z,98308.86
2019-01-17T12:29:55.237Z,98310.34
2019-01-17T12:34:59.385Z,98304.42
2019-01-17T12:40:04.655Z,98302.20
2019-01-17T12:45:10.280Z,98298.31
2019-01-17T12:50:18.475Z,98300.02
2019-01-17T12:55:22.491Z,98295.34
2019-01-17T13:00:26.664Z,98300.28
2019-01-17T13:05:30.619Z,98297.23
2019-01-17T13:10:34.746Z,98297.31
2019-01-17T13:15:38.912Z,98289.94
2019-01-17T13:20:42.970Z,98287.75
2019-01-17T13:25:47.075Z,98288.27
2019-01-17T13:30:51.588Z,98283.53
2019-01-17T13:35:55.699Z,98285.55
2019-01-17T13:40:59.751Z,98290.44
2019-01-17T13:46:04.550Z,98289.08
2019-01-17T13:51:08.494Z,98287.89
2019-01-17T13:56:12.428Z,98282.25
2019-01-17T14:01:16.559Z,98278.61
2019-01-17T14:06:21.259Z,98270.61
2019-01-17T14:11:25.397Z,98266.45
2019-01-17T14:16:30.345Z,98271.08
2019-01-17T14:21:34.446Z,98274.10
2019-01-17T14:26:38.548Z,98271.23
2019-01-17T14:31:43.296Z,98277.87
2019-01-17T14:36:47.824Z,98275.30
2019-01-17T14:41:52.021Z,98271.09
2019-01-17T14:46:55.824Z,98274.45
2019-01-17T14:51:59.878Z,98281.69
2019-01-17T14:57:04.738Z,98282.20
2019-01-17T15:02:09.201Z,98290.82
2019-01-17T15:07:13.112Z,98281.64
2019-01-17T15:12:18.353Z,98288.56
2019-01-17T15:17:22.402Z,98283.81
2019-01-17T15:22:26.671Z,98291.09
2019-01-17T15:27:30.678Z,98294.77
2019-01-17T15:32:35.285Z,98288.53
2019-01-17T15:37:39.355Z,98302.13
2019-01-17T15:42:43.404Z,98303.57
2019-01-17T15:47:47.676Z,98307.59
2019-01-17T15:52:52.211Z,98317.33
2019-01-17T15:57:56.340Z,98318.20
2019-01-17T16:03:01.555Z,98315.67
2019-01-17T16:08:05.806Z,98322.02
2019-01-17T16:13:09.835Z,98320.73
2019-01-17T16:18:13.824Z,98329.63
2019-01-17T16:23:17.783Z,98338.06
2019-01-17T16:28:21.836Z,98338.60
2019-01-17T16:33:26.478Z,98346.73
2019-01-17T16:38:32.530Z,98347.80
2019-01-17T16:43:37.508Z,98352.63
2019-01-17T16:48:42.286Z,98352.11
2019-01-17T16:53:49.773Z,98352.16
2019-01-17T16:58:55.415Z,98350.36
2019-01-17T17:04:00.179Z,98355.59
2019-01-17T17:09:08.254Z,98352.73
2019-01-17T17:14:12.238Z,98353.53
2019-01-17T17:19:16.210Z,98351.39
2019-01-17T17:24:21.570Z,98351.56
2019-01-17T17:29:25.538Z,98360.47
2019-01-17T17:34:30.546Z,98360.41
2019-01-17T17:39:34.455Z,98359.70
2019-01-17T17:44:38.446Z,98352.08
2019-01-17T17:49:47.097Z,98351.27
2019-01-17T17:54:51.513Z,98350.70
2019-01-17T17:59:55.625Z,98346.31
2019-01-17T18:04:59.805Z,98356.69
2019-01-17T18:10:05.948Z,98352.55
2019-01-17T18:15:11.557Z,98357.69
2019-01-17T18:20:15.619Z,98362.56
2019-01-17T18:25:20.478Z,98361.18
2019-01-17T18:30:24.747Z,98357.28
2019-01-17T18:35:29.105Z,98355.48
2019-01-17T18:40:34.908Z,98365.77
2019-01-17T18:45:42.160Z,98361.48
2019-01-17T18:50:46.498Z,98362.22
2019-01-17T18:55:55.756Z,98365.84
2019-01-17T19:01:00.127Z,98367.72
2019-01-17T19:06:05.325Z,98375.45
2019-01-17T19:11:09.702Z,98377.89
2019-01-17T19:16:13.865Z,98368.50
2019-01-17T19:21:18.020Z,98374.12
2019-01-17T19:26:21.980Z,98371.69
2019-01-17T19:31:26.230Z,98372.94
2019-01-17T19:36:30.777Z,98369.61
2019-01-17T19:41:35.013Z,98368.48
2019-01-17T19:46:39.623Z,98369.39
2019-01-17T19:51:43.723Z,98370.86
2019-01-17T19:56:49.605Z,98360.95
2019-01-17T20:01:56.262Z,98366.62
2019-01-17T20:07:00.322Z,98361.09
2019-01-17T20:12:04.955Z,98363.73
2019-01-17T20:17:09.492Z,98364.66
2019-01-17T20:22:13.873Z,98370.94
2019-01-17T20:27:19.160Z,98368.10
2019-01-17T20:32:23.062Z,98365.89
2019-01-17T20:37:27.601Z,98369.82
2019-01-17T20:42:31.658Z,98365.52
2019-01-17T20:47:35.626Z,98366.09
2019-01-17T20:52:40.106Z,98366.94
2019-01-17T20:57:45.705Z,98369.02
2019-01-17T21:02:50.072Z,98367.34
2019-01-17T21:07:54.394Z,98364.02
2019-01-17T21:12:58.577Z,98371.99
2019-01-17T21:18:02.925Z,98371.06
2019-01-17T21:23:07.979Z,98367.73
2019-01-17T21:28:12.347Z,98366.00
2019-01-17T21:33:17.590Z,98370.16
2019-01-17T21:38:21.915Z,98358.77
2019-01-17T21:43:26.542Z,98362.56
2019-01-17T21:48:31.449Z,98359.59
2019-01-17T21:53:35.611Z,98362.14
2019-01-17T21:58:39.627Z,98357.07
2019-01-17T22:03:43.705Z,98356.35
2019-01-17T22:08:48.873Z,98356.33
2019-01-17T22:13:53.062Z,98357.45
2019-01-17T22:18:57.055Z,98355.37
2019-01-17T22:24:01.068Z,98356.77
2019-01-17T22:29:05.146Z,98348.59
2019-01-17T22:34:09.153Z,98345.31
2019-01-17T22:39:13.945Z,98344.14
2019-01-17T22:44:17.979Z,98333.30
2019-01-17T22:49:21.998Z,98327.28
2019-01-17T22:54:28.459Z,98324.52
2019-01-17T22:59:32.566Z,98326.19
2019-01-17T23:04:36.645Z,98333.70
2019-01-17T23:09:40.648Z,98326.05
2019-01-17T23:14:44.576Z,98331.67
2019-01-17T23:19:48.565Z,98326.06
2019-01-17T23:24:52.474Z,98330.33
2019-01-17T23:29:56.589Z,98328.86
2019-01-17T23:35:00.563Z,98329.06
2019-01-17T23:40:05.643Z,98326.41
2019-01-17T23:45:09.695Z,98321.10
2019-01-17T23:50:13.943Z,98323.91
2019-01-17T23:55:19.434Z,98320.91
